sensor_id;sensor_type;location;lat;lon;timestamp;P1;durP1;ratioP1;P2;durP2;ratioP2
74541;SDS011;63015;45.378;20.360;2022-12-07T00:00:40;181.88;;;53.58;;
74541;SDS011;63015;45.378;20.360;2022-12-07T00:02:40;201.35;;;52.00;;
74541;SDS011;63015;45.378;20.360;2022-12-07T00:04:41;165.90;;;48.95;;
74541;SDS011;63015;45.378;20.360;2022-12-07T00:06:42;211.05;;;50.80;;
74541;SDS011;63015;45.378;20.360;2022-12-07T00:08:45;170.30;;;45.08;;
74541;SDS011;63015;45.378;20.360;2022-12-07T00:10:46;182.77;;;49.42;;
74541;SDS011;63015;45.378;20.360;2022-12-07T00:12:47;189.52;;;48.78;;
74541;SDS011;63015;45.378;20.360;2022-12-07T00:14:47;251.38;;;56.05;;
74541;SDS011;63015;45.378;20.360;2022-12-07T00:16:49;278.98;;;57.50;;
74541;SDS011;63015;45.378;20.360;2022-12-07T00:18:50;209.05;;;49.65;;
74541;SDS011;63015;45.378;20.360;2022-12-07T00:20:51;262.80;;;49.67;;
74541;SDS011;63015;45.378;20.360;2022-12-07T00:22:52;202.57;;;45.20;;
74541;SDS011;63015;45.378;20.360;2022-12-07T00:24:52;175.57;;;41.85;;
74541;SDS011;63015;45.378;20.360;2022-12-07T00:26:53;219.85;;;46.20;;
74541;SDS011;63015;45.378;20.360;2022-12-07T00:28:54;231.32;;;43.35;;
74541;SDS011;63015;45.378;20.360;2022-12-07T00:31:01;271.02;;;43.00;;
74541;SDS011;63015;45.378;20.360;2022-12-07T00:33:06;174.35;;;34.92;;
74541;SDS011;63015;45.378;20.360;2022-12-07T00:35:07;151.63;;;30.23;;
74541;SDS011;63015;45.378;20.360;2022-12-07T00:37:08;116.72;;;26.02;;
74541;SDS011;63015;45.378;20.360;2022-12-07T00:39:08;89.28;;;22.23;;
74541;SDS011;63015;45.378;20.360;2022-12-07T00:41:13;83.40;;;21.60;;
74541;SDS011;63015;45.378;20.360;2022-12-07T00:43:15;82.53;;;17.30;;
74541;SDS011;63015;45.378;20.360;2022-12-07T00:45:16;53.38;;;14.57;;
74541;SDS011;63015;45.378;20.360;2022-12-07T00:47:16;87.82;;;18.92;;
74541;SDS011;63015;45.378;20.360;2022-12-07T00:49:17;81.72;;;18.27;;
74541;SDS011;63015;45.378;20.360;2022-12-07T00:51:18;102.60;;;20.42;;
74541;SDS011;63015;45.378;20.360;2022-12-07T00:53:20;87.18;;;17.15;;
74541;SDS011;63015;45.378;20.360;2022-12-07T00:55:22;87.55;;;18.95;;
74541;SDS011;63015;45.378;20.360;2022-12-07T00:57:22;39.53;;;9.15;;
74541;SDS011;63015;45.378;20.360;2022-12-07T00:59:23;19.35;;;7.38;;
74541;SDS011;63015;45.378;20.360;2022-12-07T01:01:24;62.30;;;14.73;;
74541;SDS011;63015;45.378;20.360;2022-12-07T01:03:26;51.63;;;12.65;;
74541;SDS011;63015;45.378;20.360;2022-12-07T01:05:27;38.40;;;12.57;;
74541;SDS011;63015;45.378;20.360;2022-12-07T01:07:28;32.35;;;11.25;;
74541;SDS011;63015;45.378;20.360;2022-12-07T01:09:28;39.55;;;13.02;;
74541;SDS011;63015;45.378;20.360;2022-12-07T01:11:29;27.10;;;12.18;;
74541;SDS011;63015;45.378;20.360;2022-12-07T01:13:30;31.83;;;14.27;;
74541;SDS011;63015;45.378;20.360;2022-12-07T01:15:32;33.58;;;13.68;;
74541;SDS011;63015;45.378;20.360;2022-12-07T01:17:33;27.75;;;12.45;;
74541;SDS011;63015;45.378;20.360;2022-12-07T01:19:34;35.65;;;14.65;;
74541;SDS011;63015;45.378;20.360;2022-12-07T01:21:35;36.53;;;13.93;;
74541;SDS011;63015;45.378;20.360;2022-12-07T01:23:37;31.90;;;12.55;;
74541;SDS011;63015;45.378;20.360;2022-12-07T01:25:38;32.03;;;12.95;;
74541;SDS011;63015;45.378;20.360;2022-12-07T01:27:39;31.48;;;12.82;;
74541;SDS011;63015;45.378;20.360;2022-12-07T01:29:39;31.60;;;12.90;;
74541;SDS011;63015;45.378;20.360;2022-12-07T01:31:40;27.38;;;11.02;;
74541;SDS011;63015;45.378;20.360;2022-12-07T01:33:41;27.00;;;12.10;;
74541;SDS011;63015;45.378;20.360;2022-12-07T01:35:43;26.65;;;12.70;;
74541;SDS011;63015;45.378;20.360;2022-12-07T01:37:44;39.90;;;14.27;;
74541;SDS011;63015;45.378;20.360;2022-12-07T01:39:44;38.28;;;14.45;;
74541;SDS011;63015;45.378;20.360;2022-12-07T01:41:48;37.85;;;15.60;;
74541;SDS011;63015;45.378;20.360;2022-12-07T01:46:18;56.58;;;19.40;;
74541;SDS011;63015;45.378;20.360;2022-12-07T01:48:20;43.75;;;19.08;;
74541;SDS011;63015;45.378;20.360;2022-12-07T01:50:25;54.13;;;22.00;;
74541;SDS011;63015;45.378;20.360;2022-12-07T01:54:31;41.08;;;16.42;;
74541;SDS011;63015;45.378;20.360;2022-12-07T01:56:34;62.88;;;21.83;;
74541;SDS011;63015;45.378;20.360;2022-12-07T01:58:38;57.63;;;24.67;;
74541;SDS011;63015;45.378;20.360;2022-12-07T02:00:39;46.08;;;18.88;;
74541;SDS011;63015;45.378;20.360;2022-12-07T02:05:03;46.30;;;19.65;;
74541;SDS011;63015;45.378;20.360;2022-12-07T02:07:04;46.85;;;19.42;;
74541;SDS011;63015;45.378;20.360;2022-12-07T02:09:05;42.78;;;19.73;;
74541;SDS011;63015;45.378;20.360;2022-12-07T02:11:06;45.20;;;19.80;;
74541;SDS011;63015;45.378;20.360;2022-12-07T02:13:10;60.92;;;23.35;;
74541;SDS011;63015;45.378;20.360;2022-12-07T02:15:16;63.83;;;23.20;;
74541;SDS011;63015;45.378;20.360;2022-12-07T02:18:02;45.90;;;19.35;;
74541;SDS011;63015;45.378;20.360;2022-12-07T02:29:53;42.83;;;19.05;;
74541;SDS011;63015;45.378;20.360;2022-12-07T02:34:44;32.35;;;15.30;;
74541;SDS011;63015;45.378;20.360;2022-12-07T02:36:52;31.42;;;15.55;;
74541;SDS011;63015;45.378;20.360;2022-12-07T02:41:24;29.02;;;13.73;;
74541;SDS011;63015;45.378;20.360;2022-12-07T02:44:08;28.85;;;13.80;;
74541;SDS011;63015;45.378;20.360;2022-12-07T02:46:10;25.83;;;12.63;;
74541;SDS011;63015;45.378;20.360;2022-12-07T02:48:16;24.58;;;11.90;;
74541;SDS011;63015;45.378;20.360;2022-12-07T02:50:20;20.15;;;9.55;;
74541;SDS011;63015;45.378;20.360;2022-12-07T02:52:21;17.85;;;8.57;;
74541;SDS011;63015;45.378;20.360;2022-12-07T02:54:21;28.05;;;10.88;;
74541;SDS011;63015;45.378;20.360;2022-12-07T02:56:27;24.73;;;10.18;;
74541;SDS011;63015;45.378;20.360;2022-12-07T03:01:04;25.02;;;11.80;;
74541;SDS011;63015;45.378;20.360;2022-12-07T03:03:16;24.67;;;11.43;;
74541;SDS011;63015;45.378;20.360;2022-12-07T03:09:37;27.80;;;13.05;;
74541;SDS011;63015;45.378;20.360;2022-12-07T03:12:01;27.08;;;12.80;;
74541;SDS011;63015;45.378;20.360;2022-12-07T03:14:23;27.45;;;12.00;;
74541;SDS011;63015;45.378;20.360;2022-12-07T03:16:34;29.88;;;12.75;;
74541;SDS011;63015;45.378;20.360;2022-12-07T03:18:52;29.63;;;13.70;;
74541;SDS011;63015;45.378;20.360;2022-12-07T03:20:57;31.52;;;13.85;;
74541;SDS011;63015;45.378;20.360;2022-12-07T03:23:05;17.17;;;8.32;;
74541;SDS011;63015;45.378;20.360;2022-12-07T03:25:10;28.58;;;11.38;;
74541;SDS011;63015;45.378;20.360;2022-12-07T03:27:18;23.55;;;11.23;;
74541;SDS011;63015;45.378;20.360;2022-12-07T03:29:28;13.85;;;6.90;;
74541;SDS011;63015;45.378;20.360;2022-12-07T03:31:32;27.65;;;12.25;;
74541;SDS011;63015;45.378;20.360;2022-12-07T03:33:39;33.88;;;14.02;;
74541;SDS011;63015;45.378;20.360;2022-12-07T03:36:23;29.77;;;12.88;;
74541;SDS011;63015;45.378;20.360;2022-12-07T03:38:47;25.23;;;12.27;;
74541;SDS011;63015;45.378;20.360;2022-12-07T03:41:00;28.92;;;13.10;;
74541;SDS011;63015;45.378;20.360;2022-12-07T03:43:07;28.35;;;13.27;;
74541;SDS011;63015;45.378;20.360;2022-12-07T03:45:08;31.17;;;12.90;;
74541;SDS011;63015;45.378;20.360;2022-12-07T03:47:18;32.70;;;13.75;;
74541;SDS011;63015;45.378;20.360;2022-12-07T03:49:32;27.83;;;12.02;;
74541;SDS011;63015;45.378;20.360;2022-12-07T03:53:59;31.05;;;13.68;;
74541;SDS011;63015;45.378;20.360;2022-12-07T03:56:07;34.40;;;13.52;;
74541;SDS011;63015;45.378;20.360;2022-12-07T03:58:15;29.70;;;13.30;;
74541;SDS011;63015;45.378;20.360;2022-12-07T04:00:19;36.95;;;14.25;;
74541;SDS011;63015;45.378;20.360;2022-12-07T04:02:20;27.63;;;11.82;;
74541;SDS011;63015;45.378;20.360;2022-12-07T04:04:21;32.70;;;14.27;;
74541;SDS011;63015;45.378;20.360;2022-12-07T04:06:22;34.63;;;13.93;;
74541;SDS011;63015;45.378;20.360;2022-12-07T04:08:23;34.58;;;13.75;;
74541;SDS011;63015;45.378;20.360;2022-12-07T04:10:23;36.47;;;14.35;;
74541;SDS011;63015;45.378;20.360;2022-12-07T04:12:24;42.20;;;16.77;;
74541;SDS011;63015;45.378;20.360;2022-12-07T04:14:24;41.80;;;17.13;;
74541;SDS011;63015;45.378;20.360;2022-12-07T04:16:25;33.88;;;14.63;;
74541;SDS011;63015;45.378;20.360;2022-12-07T04:18:25;40.03;;;16.73;;
74541;SDS011;63015;45.378;20.360;2022-12-07T04:20:26;42.45;;;17.35;;
74541;SDS011;63015;45.378;20.360;2022-12-07T04:22:27;42.28;;;18.10;;
74541;SDS011;63015;45.378;20.360;2022-12-07T04:24:27;43.13;;;16.85;;
74541;SDS011;63015;45.378;20.360;2022-12-07T04:26:28;37.97;;;15.63;;
74541;SDS011;63015;45.378;20.360;2022-12-07T04:28:29;36.55;;;14.07;;
74541;SDS011;63015;45.378;20.360;2022-12-07T04:30:29;31.95;;;13.05;;
74541;SDS011;63015;45.378;20.360;2022-12-07T04:32:30;32.88;;;13.23;;
74541;SDS011;63015;45.378;20.360;2022-12-07T04:34:30;33.45;;;14.65;;
74541;SDS011;63015;45.378;20.360;2022-12-07T04:36:31;35.40;;;13.85;;
74541;SDS011;63015;45.378;20.360;2022-12-07T04:38:32;33.75;;;14.60;;
74541;SDS011;63015;45.378;20.360;2022-12-07T04:40:33;36.97;;;14.95;;
74541;SDS011;63015;45.378;20.360;2022-12-07T04:42:34;34.35;;;14.77;;
74541;SDS011;63015;45.378;20.360;2022-12-07T04:44:35;30.92;;;14.25;;
74541;SDS011;63015;45.378;20.360;2022-12-07T04:46:35;29.38;;;13.70;;
74541;SDS011;63015;45.378;20.360;2022-12-07T04:48:36;28.00;;;13.02;;
74541;SDS011;63015;45.378;20.360;2022-12-07T04:50:36;36.13;;;15.70;;
74541;SDS011;63015;45.378;20.360;2022-12-07T04:52:38;30.60;;;14.30;;
74541;SDS011;63015;45.378;20.360;2022-12-07T04:54:38;30.17;;;14.15;;
74541;SDS011;63015;45.378;20.360;2022-12-07T04:56:39;26.70;;;11.57;;
74541;SDS011;63015;45.378;20.360;2022-12-07T04:58:41;31.70;;;13.50;;
74541;SDS011;63015;45.378;20.360;2022-12-07T05:00:42;29.73;;;14.20;;
74541;SDS011;63015;45.378;20.360;2022-12-07T05:02:42;26.85;;;12.43;;
74541;SDS011;63015;45.378;20.360;2022-12-07T05:04:43;27.27;;;12.68;;
74541;SDS011;63015;45.378;20.360;2022-12-07T05:06:44;28.83;;;14.25;;
74541;SDS011;63015;45.378;20.360;2022-12-07T05:08:44;33.05;;;14.98;;
74541;SDS011;63015;45.378;20.360;2022-12-07T05:10:45;35.53;;;15.15;;
74541;SDS011;63015;45.378;20.360;2022-12-07T05:12:45;35.45;;;14.00;;
74541;SDS011;63015;45.378;20.360;2022-12-07T05:14:46;39.42;;;16.42;;
74541;SDS011;63015;45.378;20.360;2022-12-07T05:16:48;30.70;;;12.95;;
74541;SDS011;63015;45.378;20.360;2022-12-07T05:18:50;28.17;;;12.23;;
74541;SDS011;63015;45.378;20.360;2022-12-07T05:20:51;33.60;;;14.02;;
74541;SDS011;63015;45.378;20.360;2022-12-07T05:22:52;33.80;;;14.00;;
74541;SDS011;63015;45.378;20.360;2022-12-07T05:24:52;31.85;;;14.02;;
74541;SDS011;63015;45.378;20.360;2022-12-07T05:26:53;34.90;;;14.15;;
74541;SDS011;63015;45.378;20.360;2022-12-07T05:28:54;33.42;;;14.40;;
74541;SDS011;63015;45.378;20.360;2022-12-07T05:30:56;33.70;;;14.10;;
74541;SDS011;63015;45.378;20.360;2022-12-07T05:32:56;34.42;;;14.45;;
74541;SDS011;63015;45.378;20.360;2022-12-07T05:34:57;37.45;;;16.45;;
74541;SDS011;63015;45.378;20.360;2022-12-07T05:36:57;35.85;;;15.13;;
74541;SDS011;63015;45.378;20.360;2022-12-07T05:38:58;37.15;;;14.85;;
74541;SDS011;63015;45.378;20.360;2022-12-07T05:41:02;35.10;;;14.23;;
74541;SDS011;63015;45.378;20.360;2022-12-07T05:43:04;31.92;;;13.32;;
74541;SDS011;63015;45.378;20.360;2022-12-07T05:45:05;27.67;;;11.52;;
74541;SDS011;63015;45.378;20.360;2022-12-07T05:47:06;26.55;;;12.20;;
74541;SDS011;63015;45.378;20.360;2022-12-07T05:49:06;24.27;;;10.85;;
74541;SDS011;63015;45.378;20.360;2022-12-07T05:51:07;29.13;;;14.13;;
74541;SDS011;63015;45.378;20.360;2022-12-07T05:53:08;28.42;;;13.32;;
74541;SDS011;63015;45.378;20.360;2022-12-07T05:55:08;32.22;;;14.00;;
74541;SDS011;63015;45.378;20.360;2022-12-07T05:57:09;31.77;;;14.00;;
74541;SDS011;63015;45.378;20.360;2022-12-07T05:59:09;31.05;;;13.20;;
74541;SDS011;63015;45.378;20.360;2022-12-07T06:01:22;29.02;;;13.13;;
74541;SDS011;63015;45.378;20.360;2022-12-07T06:03:23;32.65;;;14.45;;
74541;SDS011;63015;45.378;20.360;2022-12-07T06:05:23;32.40;;;14.32;;
74541;SDS011;63015;45.378;20.360;2022-12-07T06:07:24;32.28;;;14.80;;
74541;SDS011;63015;45.378;20.360;2022-12-07T06:09:25;34.05;;;15.68;;
74541;SDS011;63015;45.378;20.360;2022-12-07T06:11:27;30.73;;;14.43;;
74541;SDS011;63015;45.378;20.360;2022-12-07T06:13:46;33.45;;;14.50;;
74541;SDS011;63015;45.378;20.360;2022-12-07T06:15:47;29.85;;;13.82;;
74541;SDS011;63015;45.378;20.360;2022-12-07T06:17:47;34.22;;;15.00;;
74541;SDS011;63015;45.378;20.360;2022-12-07T06:19:48;32.20;;;13.75;;
74541;SDS011;63015;45.378;20.360;2022-12-07T06:21:48;35.85;;;15.52;;
74541;SDS011;63015;45.378;20.360;2022-12-07T06:23:49;32.00;;;13.52;;
74541;SDS011;63015;45.378;20.360;2022-12-07T06:25:49;32.42;;;15.05;;
74541;SDS011;63015;45.378;20.360;2022-12-07T06:27:50;32.95;;;15.25;;
74541;SDS011;63015;45.378;20.360;2022-12-07T06:29:50;34.85;;;15.27;;
74541;SDS011;63015;45.378;20.360;2022-12-07T06:31:51;35.42;;;15.60;;
74541;SDS011;63015;45.378;20.360;2022-12-07T06:33:56;35.38;;;15.45;;
74541;SDS011;63015;45.378;20.360;2022-12-07T06:35:58;33.53;;;15.23;;
74541;SDS011;63015;45.378;20.360;2022-12-07T06:37:58;33.78;;;16.13;;
74541;SDS011;63015;45.378;20.360;2022-12-07T06:39:59;36.47;;;16.38;;
74541;SDS011;63015;45.378;20.360;2022-12-07T06:41:59;33.70;;;15.32;;
74541;SDS011;63015;45.378;20.360;2022-12-07T06:44:00;34.45;;;16.27;;
74541;SDS011;63015;45.378;20.360;2022-12-07T06:46:00;35.92;;;16.65;;
74541;SDS011;63015;45.378;20.360;2022-12-07T06:48:01;33.60;;;15.27;;
74541;SDS011;63015;45.378;20.360;2022-12-07T06:50:02;39.00;;;16.30;;
74541;SDS011;63015;45.378;20.360;2022-12-07T06:52:03;27.55;;;12.50;;
74541;SDS011;63015;45.378;20.360;2022-12-07T06:54:05;30.38;;;12.90;;
74541;SDS011;63015;45.378;20.360;2022-12-07T06:56:06;34.80;;;17.38;;
74541;SDS011;63015;45.378;20.360;2022-12-07T06:58:07;35.20;;;17.30;;
74541;SDS011;63015;45.378;20.360;2022-12-07T07:00:08;25.33;;;11.10;;
74541;SDS011;63015;45.378;20.360;2022-12-07T07:02:09;39.13;;;17.92;;
74541;SDS011;63015;45.378;20.360;2022-12-07T07:04:10;16.55;;;7.53;;
74541;SDS011;63015;45.378;20.360;2022-12-07T07:06:10;22.80;;;11.65;;
74541;SDS011;63015;45.378;20.360;2022-12-07T07:08:12;19.83;;;9.60;;
74541;SDS011;63015;45.378;20.360;2022-12-07T07:10:13;23.60;;;11.77;;
74541;SDS011;63015;45.378;20.360;2022-12-07T07:12:14;22.13;;;10.63;;
74541;SDS011;63015;45.378;20.360;2022-12-07T07:14:14;22.08;;;11.18;;
74541;SDS011;63015;45.378;20.360;2022-12-07T07:16:19;20.30;;;9.27;;
74541;SDS011;63015;45.378;20.360;2022-12-07T07:18:19;20.33;;;10.70;;
74541;SDS011;63015;45.378;20.360;2022-12-07T07:20:20;23.50;;;11.40;;
74541;SDS011;63015;45.378;20.360;2022-12-07T07:22:20;16.80;;;8.98;;
74541;SDS011;63015;45.378;20.360;2022-12-07T07:24:21;12.70;;;5.97;;
74541;SDS011;63015;45.378;20.360;2022-12-07T07:26:22;12.82;;;5.53;;
74541;SDS011;63015;45.378;20.360;2022-12-07T07:28:22;23.65;;;10.30;;
74541;SDS011;63015;45.378;20.360;2022-12-07T07:30:23;19.85;;;9.45;;
74541;SDS011;63015;45.378;20.360;2022-12-07T07:32:24;16.00;;;7.80;;
74541;SDS011;63015;45.378;20.360;2022-12-07T07:34:25;21.85;;;10.35;;
74541;SDS011;63015;45.378;20.360;2022-12-07T07:36:25;15.13;;;6.95;;
74541;SDS011;63015;45.378;20.360;2022-12-07T07:38:26;19.20;;;8.80;;
74541;SDS011;63015;45.378;20.360;2022-12-07T07:40:26;16.25;;;7.07;;
74541;SDS011;63015;45.378;20.360;2022-12-07T07:42:29;21.10;;;8.93;;
74541;SDS011;63015;45.378;20.360;2022-12-07T07:44:29;22.17;;;9.73;;
74541;SDS011;63015;45.378;20.360;2022-12-07T07:46:30;25.75;;;11.02;;
74541;SDS011;63015;45.378;20.360;2022-12-07T07:48:33;26.55;;;10.43;;
74541;SDS011;63015;45.378;20.360;2022-12-07T07:50:34;21.77;;;8.43;;
74541;SDS011;63015;45.378;20.360;2022-12-07T07:52:34;18.48;;;8.25;;
74541;SDS011;63015;45.378;20.360;2022-12-07T07:54:35;15.60;;;6.35;;
74541;SDS011;63015;45.378;20.360;2022-12-07T07:56:35;23.90;;;9.68;;
74541;SDS011;63015;45.378;20.360;2022-12-07T07:58:36;16.75;;;7.32;;
74541;SDS011;63015;45.378;20.360;2022-12-07T08:00:36;25.05;;;10.27;;
74541;SDS011;63015;45.378;20.360;2022-12-07T08:02:37;25.88;;;9.85;;
74541;SDS011;63015;45.378;20.360;2022-12-07T08:04:38;23.23;;;9.80;;
74541;SDS011;63015;45.378;20.360;2022-12-07T08:06:38;20.77;;;9.90;;
74541;SDS011;63015;45.378;20.360;2022-12-07T08:08:39;22.23;;;10.68;;
74541;SDS011;63015;45.378;20.360;2022-12-07T08:10:40;18.02;;;8.82;;
74541;SDS011;63015;45.378;20.360;2022-12-07T08:12:41;28.60;;;10.55;;
74541;SDS011;63015;45.378;20.360;2022-12-07T08:15:01;28.63;;;12.73;;
74541;SDS011;63015;45.378;20.360;2022-12-07T08:17:02;22.95;;;9.20;;
74541;SDS011;63015;45.378;20.360;2022-12-07T08:19:04;18.02;;;8.25;;
74541;SDS011;63015;45.378;20.360;2022-12-07T08:21:06;16.83;;;8.20;;
74541;SDS011;63015;45.378;20.360;2022-12-07T08:23:07;22.83;;;11.82;;
74541;SDS011;63015;45.378;20.360;2022-12-07T08:25:08;32.17;;;14.20;;
74541;SDS011;63015;45.378;20.360;2022-12-07T08:27:09;26.40;;;11.48;;
74541;SDS011;63015;45.378;20.360;2022-12-07T08:29:10;26.77;;;12.23;;
74541;SDS011;63015;45.378;20.360;2022-12-07T08:31:12;28.83;;;12.88;;
74541;SDS011;63015;45.378;20.360;2022-12-07T08:33:14;12.27;;;5.95;;
74541;SDS011;63015;45.378;20.360;2022-12-07T08:35:15;29.88;;;12.93;;
74541;SDS011;63015;45.378;20.360;2022-12-07T08:37:16;31.17;;;14.32;;
74541;SDS011;63015;45.378;20.360;2022-12-07T08:39:17;37.72;;;15.25;;
74541;SDS011;63015;45.378;20.360;2022-12-07T08:41:17;20.13;;;9.85;;
74541;SDS011;63015;45.378;20.360;2022-12-07T08:43:18;30.85;;;13.38;;
74541;SDS011;63015;45.378;20.360;2022-12-07T08:45:19;27.58;;;12.02;;
74541;SDS011;63015;45.378;20.360;2022-12-07T08:47:20;25.90;;;11.75;;
74541;SDS011;63015;45.378;20.360;2022-12-07T08:49:29;12.27;;;6.32;;
74541;SDS011;63015;45.378;20.360;2022-12-07T08:51:35;25.48;;;11.60;;
74541;SDS011;63015;45.378;20.360;2022-12-07T08:53:37;25.23;;;10.73;;
74541;SDS011;63015;45.378;20.360;2022-12-07T08:55:39;18.02;;;8.05;;
74541;SDS011;63015;45.378;20.360;2022-12-07T08:57:40;19.70;;;9.38;;
74541;SDS011;63015;45.378;20.360;2022-12-07T08:59:41;20.50;;;9.38;;
74541;SDS011;63015;45.378;20.360;2022-12-07T09:01:41;19.20;;;9.18;;
74541;SDS011;63015;45.378;20.360;2022-12-07T09:03:42;25.05;;;11.40;;
74541;SDS011;63015;45.378;20.360;2022-12-07T09:05:42;25.38;;;11.48;;
74541;SDS011;63015;45.378;20.360;2022-12-07T09:07:44;18.27;;;9.45;;
74541;SDS011;63015;45.378;20.360;2022-12-07T09:09:48;17.30;;;7.35;;
74541;SDS011;63015;45.378;20.360;2022-12-07T09:11:48;24.92;;;11.95;;
74541;SDS011;63015;45.378;20.360;2022-12-07T09:13:49;17.73;;;8.48;;
74541;SDS011;63015;45.378;20.360;2022-12-07T09:15:49;21.90;;;10.77;;
74541;SDS011;63015;45.378;20.360;2022-12-07T09:17:50;24.92;;;10.35;;
74541;SDS011;63015;45.378;20.360;2022-12-07T09:19:51;23.30;;;10.27;;
74541;SDS011;63015;45.378;20.360;2022-12-07T09:21:52;19.15;;;9.20;;
74541;SDS011;63015;45.378;20.360;2022-12-07T09:23:52;19.95;;;9.93;;
74541;SDS011;63015;45.378;20.360;2022-12-07T09:25:53;24.33;;;11.18;;
74541;SDS011;63015;45.378;20.360;2022-12-07T09:27:57;19.20;;;8.68;;
74541;SDS011;63015;45.378;20.360;2022-12-07T09:29:58;20.88;;;9.85;;
74541;SDS011;63015;45.378;20.360;2022-12-07T09:31:58;22.25;;;6.90;;
74541;SDS011;63015;45.378;20.360;2022-12-07T09:34:00;11.77;;;6.22;;
74541;SDS011;63015;45.378;20.360;2022-12-07T09:36:00;21.73;;;10.55;;
74541;SDS011;63015;45.378;20.360;2022-12-07T09:38:02;24.55;;;11.05;;
74541;SDS011;63015;45.378;20.360;2022-12-07T09:40:03;25.40;;;11.95;;
74541;SDS011;63015;45.378;20.360;2022-12-07T09:42:05;25.27;;;11.27;;
74541;SDS011;63015;45.378;20.360;2022-12-07T09:44:11;24.25;;;11.43;;
74541;SDS011;63015;45.378;20.360;2022-12-07T09:46:15;23.17;;;10.60;;
74541;SDS011;63015;45.378;20.360;2022-12-07T09:48:18;19.90;;;10.10;;
74541;SDS011;63015;45.378;20.360;2022-12-07T09:50:33;18.90;;;9.60;;
74541;SDS011;63015;45.378;20.360;2022-12-07T09:52:33;19.35;;;8.85;;
74541;SDS011;63015;45.378;20.360;2022-12-07T09:54:39;22.95;;;10.10;;
74541;SDS011;63015;45.378;20.360;2022-12-07T09:56:43;22.00;;;9.70;;
74541;SDS011;63015;45.378;20.360;2022-12-07T09:58:45;12.30;;;6.15;;
74541;SDS011;63015;45.378;20.360;2022-12-07T10:00:46;23.13;;;10.52;;
74541;SDS011;63015;45.378;20.360;2022-12-07T10:02:49;21.30;;;9.88;;
74541;SDS011;63015;45.378;20.360;2022-12-07T10:04:54;19.15;;;9.02;;
74541;SDS011;63015;45.378;20.360;2022-12-07T10:06:58;15.55;;;7.80;;
74541;SDS011;63015;45.378;20.360;2022-12-07T10:08:58;17.95;;;8.60;;
74541;SDS011;63015;45.378;20.360;2022-12-07T10:11:01;15.48;;;7.70;;
74541;SDS011;63015;45.378;20.360;2022-12-07T10:13:08;20.67;;;9.75;;
74541;SDS011;63015;45.378;20.360;2022-12-07T10:15:10;19.30;;;9.05;;
74541;SDS011;63015;45.378;20.360;2022-12-07T10:17:30;17.23;;;8.43;;
74541;SDS011;63015;45.378;20.360;2022-12-07T10:19:43;17.98;;;7.03;;
74541;SDS011;63015;45.378;20.360;2022-12-07T10:21:59;21.65;;;8.85;;
74541;SDS011;63015;45.378;20.360;2022-12-07T10:24:01;19.30;;;8.70;;
74541;SDS011;63015;45.378;20.360;2022-12-07T10:28:50;21.77;;;9.00;;
74541;SDS011;63015;45.378;20.360;2022-12-07T10:32:59;22.50;;;8.50;;
74541;SDS011;63015;45.378;20.360;2022-12-07T10:35:21;20.95;;;9.70;;
74541;SDS011;63015;45.378;20.360;2022-12-07T10:37:25;15.18;;;7.93;;
74541;SDS011;63015;45.378;20.360;2022-12-07T10:39:28;16.92;;;8.00;;
74541;SDS011;63015;45.378;20.360;2022-12-07T10:41:28;10.20;;;4.75;;
74541;SDS011;63015;45.378;20.360;2022-12-07T10:43:29;17.45;;;8.02;;
74541;SDS011;63015;45.378;20.360;2022-12-07T10:45:30;15.30;;;7.85;;
74541;SDS011;63015;45.378;20.360;2022-12-07T10:47:40;17.80;;;8.32;;
74541;SDS011;63015;45.378;20.360;2022-12-07T10:54:28;16.02;;;7.78;;
74541;SDS011;63015;45.378;20.360;2022-12-07T11:05:59;16.48;;;7.57;;
74541;SDS011;63015;45.378;20.360;2022-12-07T11:08:13;17.77;;;8.10;;
74541;SDS011;63015;45.378;20.360;2022-12-07T11:10:18;19.92;;;8.38;;
74541;SDS011;63015;45.378;20.360;2022-12-07T11:12:38;21.17;;;9.07;;
74541;SDS011;63015;45.378;20.360;2022-12-07T11:15:01;20.33;;;7.47;;
74541;SDS011;63015;45.378;20.360;2022-12-07T11:22:45;20.02;;;9.07;;
74541;SDS011;63015;45.378;20.360;2022-12-07T11:25:02;14.48;;;7.63;;
74541;SDS011;63015;45.378;20.360;2022-12-07T11:27:19;17.77;;;8.60;;
74541;SDS011;63015;45.378;20.360;2022-12-07T11:29:39;16.90;;;7.95;;
74541;SDS011;63015;45.378;20.360;2022-12-07T11:34:21;15.38;;;7.82;;
74541;SDS011;63015;45.378;20.360;2022-12-07T11:36:33;16.70;;;7.38;;
74541;SDS011;63015;45.378;20.360;2022-12-07T11:38:43;13.77;;;7.55;;
74541;SDS011;63015;45.378;20.360;2022-12-07T11:41:14;11.60;;;4.88;;
74541;SDS011;63015;45.378;20.360;2022-12-07T11:43:26;17.80;;;7.50;;
74541;SDS011;63015;45.378;20.360;2022-12-07T11:45:35;19.65;;;8.70;;
74541;SDS011;63015;45.378;20.360;2022-12-07T11:47:48;17.35;;;7.43;;
74541;SDS011;63015;45.378;20.360;2022-12-07T11:52:22;14.48;;;6.25;;
74541;SDS011;63015;45.378;20.360;2022-12-07T11:54:30;16.55;;;8.38;;
74541;SDS011;63015;45.378;20.360;2022-12-07T11:56:38;12.00;;;6.30;;
74541;SDS011;63015;45.378;20.360;2022-12-07T12:00:55;11.57;;;5.05;;
74541;SDS011;63015;45.378;20.360;2022-12-07T12:03:13;14.02;;;6.63;;
74541;SDS011;63015;45.378;20.360;2022-12-07T12:05:22;15.48;;;7.18;;
74541;SDS011;63015;45.378;20.360;2022-12-07T12:07:25;14.07;;;7.63;;
74541;SDS011;63015;45.378;20.360;2022-12-07T12:09:32;16.27;;;6.50;;
74541;SDS011;63015;45.378;20.360;2022-12-07T12:25:27;18.35;;;8.18;;
74541;SDS011;63015;45.378;20.360;2022-12-07T12:27:32;18.10;;;8.27;;
74541;SDS011;63015;45.378;20.360;2022-12-07T12:29:39;13.13;;;5.38;;
74541;SDS011;63015;45.378;20.360;2022-12-07T12:31:41;19.05;;;8.70;;
74541;SDS011;63015;45.378;20.360;2022-12-07T12:33:52;16.70;;;7.68;;
74541;SDS011;63015;45.378;20.360;2022-12-07T12:38:26;13.50;;;6.88;;
74541;SDS011;63015;45.378;20.360;2022-12-07T12:42:43;17.17;;;8.23;;
74541;SDS011;63015;45.378;20.360;2022-12-07T12:45:04;12.02;;;5.43;;
74541;SDS011;63015;45.378;20.360;2022-12-07T12:50:10;19.77;;;8.52;;
74541;SDS011;63015;45.378;20.360;2022-12-07T12:54:24;17.95;;;6.93;;
74541;SDS011;63015;45.378;20.360;2022-12-07T12:56:40;21.75;;;10.10;;
74541;SDS011;63015;45.378;20.360;2022-12-07T12:58:49;21.40;;;10.02;;
74541;SDS011;63015;45.378;20.360;2022-12-07T13:01:41;18.42;;;7.75;;
74541;SDS011;63015;45.378;20.360;2022-12-07T13:03:56;26.90;;;9.85;;
74541;SDS011;63015;45.378;20.360;2022-12-07T13:06:17;22.92;;;10.18;;
74541;SDS011;63015;45.378;20.360;2022-12-07T13:08:26;13.00;;;5.03;;
74541;SDS011;63015;45.378;20.360;2022-12-07T13:12:32;14.68;;;6.32;;
74541;SDS011;63015;45.378;20.360;2022-12-07T13:16:54;19.20;;;8.55;;
74541;SDS011;63015;45.378;20.360;2022-12-07T13:18:55;16.88;;;7.72;;
74541;SDS011;63015;45.378;20.360;2022-12-07T13:23:08;17.55;;;8.77;;
74541;SDS011;63015;45.378;20.360;2022-12-07T13:27:19;26.52;;;10.43;;
74541;SDS011;63015;45.378;20.360;2022-12-07T13:29:21;28.58;;;10.98;;
74541;SDS011;63015;45.378;20.360;2022-12-07T13:31:33;46.03;;;17.08;;